Time;durP1;ratioP1;P1;durP2;ratioP2;P2;SDS_P1;SDS_P2;PMS_P1;PMS_P2;Temp;Humidity;BMP_temperature;BMP_pressure;BME280_temperature;BME280_humidity;BME280_pressure;Samples;Min_cycle;Max_cycle;Signal;HPM_P1;HPM_P2
2022/09/21 00:01:29;;;;;;;8.65;3.50;;;;;;;12.72;86.64;102516.41;5064845;28;20047;-53
2022/09/21 00:04:00;;;;;;;9.15;3.25;;;;;;;12.63;86.75;102515.97;5061170;28;20047;-55
2022/09/21 00:06:30;;;;;;;10.13;3.08;;;;;;;12.63;87.90;102518.69;5070367;28;20048;-57
2022/09/21 00:08:58;;;;;;;9.68;3.10;;;;;;;12.67;88.31;102517.13;5074478;28;20049;-53
2022/09/21 00:11:28;;;;;;;13.30;3.88;;;;;;;12.72;87.58;102519.13;5074194;28;20059;-53
2022/09/21 00:14:07;;;;;;;8.93;3.25;;;;;;;12.70;86.87;102510.34;5073498;28;20060;-53
2022/09/21 00:16:35;;;;;;;7.63;3.67;;;;;;;12.66;87.85;102510.00;5073555;28;20044;-52
2022/09/21 00:19:03;;;;;;;11.60;3.58;;;;;;;12.64;87.96;102512.13;5074069;28;20048;-51
2022/09/21 00:21:31;;;;;;;14.75;3.40;;;;;;;12.65;87.57;102513.81;5054576;28;20078;-53
2022/09/21 00:24:01;;;;;;;11.35;3.45;;;;;;;12.62;88.15;102511.53;5067844;28;20418;-52
2022/09/21 00:26:29;;;;;;;8.98;3.55;;;;;;;12.63;87.79;102513.22;5072166;28;20050;-52
2022/09/21 00:29:00;;;;;;;6.97;3.13;;;;;;;12.66;87.82;102507.25;5067532;28;20507;-52
2022/09/21 00:31:29;;;;;;;10.20;3.08;;;;;;;12.66;88.11;102507.25;5073369;28;20520;-55
2022/09/21 00:33:59;;;;;;;8.27;3.22;;;;;;;12.65;88.35;102513.81;5071372;28;20100;-52
2022/09/21 00:36:27;;;;;;;6.65;3.28;;;;;;;12.69;88.87;102512.25;5069370;28;20089;-52
2022/09/21 00:38:57;;;;;;;11.77;3.25;;;;;;;12.71;87.83;102515.56;5072742;28;20406;-52
2022/09/21 00:41:26;;;;;;;7.40;3.10;;;;;;;12.73;88.01;102509.88;5060739;28;20047;-52
2022/09/21 00:44:19;;;;;;;12.13;3.58;;;;;;;12.71;88.06;102510.09;5058521;28;20044;-56
2022/09/21 00:46:49;;;;;;;10.55;3.20;;;;;;;12.68;88.14;102507.88;5072839;28;20086;-53
2022/09/21 00:49:18;;;;;;;10.75;3.60;;;;;;;12.67;87.83;102506.19;5069640;28;20532;-56
2022/09/21 00:51:46;;;;;;;8.25;3.33;;;;;;;12.66;88.05;102514.66;5072010;28;20036;-57
2022/09/21 00:54:22;;;;;;;9.70;3.47;;;;;;;12.64;88.65;102512.13;5058573;28;20049;-58
2022/09/21 00:56:50;;;;;;;6.28;3.20;;;;;;;12.64;89.17;102511.31;5055336;28;20056;-54
2022/09/21 00:59:19;;;;;;;9.60;3.65;;;;;;;12.65;88.80;102518.44;5071536;28;20044;-57
2022/09/21 01:01:49;;;;;;;9.13;3.55;;;;;;;12.65;88.74;102508.34;5043314;28;20078;-57
2022/09/21 01:04:17;;;;;;;9.02;3.22;;;;;;;12.62;88.25;102517.00;5060819;28;20041;-57
2022/09/21 01:06:46;;;;;;;8.98;3.40;;;;;;;12.57;88.78;102511.44;5060844;28;20044;-56
2022/09/21 01:09:14;;;;;;;8.90;3.30;;;;;;;12.56;88.91;102515.25;5055391;28;20110;-57
2022/09/21 01:12:22;;;;;;;5.97;3.28;;;;;;;12.53;88.33;102521.19;5069712;28;20033;-56
2022/09/21 01:15:04;;;;;;;11.38;3.47;;;;;;;12.49;88.72;102517.28;5068094;28;20044;-57
2022/09/21 01:17:39;;;;;;;9.43;3.55;;;;;;;12.48;89.44;102513.72;5061715;28;20101;-54
2022/09/21 01:20:46;;;;;;;6.97;3.08;;;;;;;12.49;89.19;102520.00;5072532;28;20041;-57
2022/09/21 01:23:33;;;;;;;10.32;3.50;;;;;;;12.44;88.99;102518.00;5070417;28;20072;-55
2022/09/21 01:26:28;;;;;;;9.27;3.47;;;;;;;12.42;88.89;102524.78;5071903;28;20619;-57
2022/09/21 01:29:15;;;;;;;9.93;3.30;;;;;;;12.41;89.01;102517.63;5059277;28;20056;-58
2022/09/21 01:32:02;;;;;;;9.27;3.33;;;;;;;12.40;89.16;102514.06;5072522;28;20041;-56
2022/09/21 01:34:49;;;;;;;7.88;2.90;;;;;;;12.35;89.43;102517.50;5071198;28;20514;-55
2022/09/21 01:37:32;;;;;;;9.38;3.30;;;;;;;12.31;88.81;102518.22;5070690;28;20047;-57
2022/09/21 01:40:03;;;;;;;6.25;2.80;;;;;;;12.27;89.22;102517.88;5071652;28;20040;-53
2022/09/21 01:42:33;;;;;;;8.57;3.33;;;;;;;12.24;89.45;102512.91;5058512;28;20097;-58
2022/09/21 01:45:03;;;;;;;8.43;3.17;;;;;;;12.21;89.42;102516.09;5062585;28;20045;-55
2022/09/21 01:47:31;;;;;;;8.13;3.65;;;;;;;12.22;89.13;102514.19;5069863;28;20051;-53
2022/09/21 01:50:01;;;;;;;8.77;3.50;;;;;;;12.16;89.69;102510.50;5064132;28;20040;-54
2022/09/21 01:53:06;;;;;;;7.88;3.03;;;;;;;12.09;89.92;102507.88;5067736;28;20045;-57
2022/09/21 01:55:41;;;;;;;9.23;3.08;;;;;;;12.07;90.33;102512.75;5056328;28;20041;-57
2022/09/21 01:58:23;;;;;;;6.82;3.33;;;;;;;12.10;90.08;102511.47;5058622;28;20460;-58
2022/09/21 02:00:54;;;;;;;7.35;3.30;;;;;;;12.12;89.95;102515.63;5089098;28;20449;-55
2022/09/21 02:03:28;;;;;;;10.95;3.28;;;;;;;12.13;89.63;102516.44;5064150;28;20391;-57
2022/09/21 02:05:56;;;;;;;5.38;2.90;;;;;;;12.11;89.96;102507.66;5074414;28;20128;-55
2022/09/21 02:08:25;;;;;;;8.25;3.20;;;;;;;12.09;89.82;102516.06;5068966;28;20414;-54
2022/09/21 02:10:53;;;;;;;10.10;3.15;;;;;;;12.09;89.84;102518.00;5068664;28;20048;-53
2022/09/21 02:13:24;;;;;;;9.85;3.80;;;;;;;12.09;90.05;102515.25;5070127;28;20052;-57
2022/09/21 02:16:05;;;;;;;10.13;3.55;;;;;;;12.09;89.91;102515.25;5058184;28;20039;-57
2022/09/21 02:19:10;;;;;;;9.75;3.72;;;;;;;12.10;89.54;102517.75;5060438;28;20064;-55
2022/09/21 02:21:59;;;;;;;9.43;3.78;;;;;;;12.07;89.57;102511.91;5063984;28;20394;-53
2022/09/21 02:24:41;;;;;;;8.82;3.85;;;;;;;12.02;89.99;102512.63;5061925;28;20040;-57
2022/09/21 02:27:26;;;;;;;7.80;3.40;;;;;;;11.97;89.56;102512.50;5075569;28;20519;-55
2022/09/21 02:29:54;;;;;;;12.65;3.40;;;;;;;11.91;89.98;102518.94;5071915;28;20047;-57
2022/09/21 02:32:49;;;;;;;9.02;3.67;;;;;;;11.86;90.43;102516.03;5072233;28;20449;-55
2022/09/21 02:35:22;;;;;;;7.43;3.80;;;;;;;11.83;90.33;102516.50;5062215;28;20048;-58
2022/09/21 02:38:15;;;;;;;9.02;3.88;;;;;;;11.81;90.42;102519.47;5073509;28;20078;-57
2022/09/21 02:40:51;;;;;;;8.30;3.58;;;;;;;11.82;90.42;102514.84;5073122;28;20048;-56
2022/09/21 02:43:42;;;;;;;10.45;3.85;;;;;;;11.80;89.94;102517.78;5061297;28;20049;-55
2022/09/21 02:46:15;;;;;;;6.72;3.38;;;;;;;11.79;90.25;102516.16;5073613;28;20048;-54
2022/09/21 02:48:49;;;;;;;7.75;3.42;;;;;;;11.76;90.75;102516.63;5073691;28;20056;-55
2022/09/21 02:51:21;;;;;;;6.82;3.28;;;;;;;11.78;91.07;102514.47;5059541;28;20376;-54
2022/09/21 02:53:49;;;;;;;9.23;3.30;;;;;;;11.81;90.78;102513.16;5070689;28;20044;-55
2022/09/21 02:56:17;;;;;;;6.32;3.00;;;;;;;11.83;89.84;102517.31;5073636;28;20059;-55
2022/09/21 02:58:53;;;;;;;7.88;3.63;;;;;;;11.85;89.41;102514.38;5074938;28;20445;-53
2022/09/21 03:01:22;;;;;;;6.97;3.47;;;;;;;11.82;89.52;102514.84;5072039;28;20044;-55
2022/09/21 03:03:50;;;;;;;8.57;3.08;;;;;;;11.76;90.58;102511.16;5058979;28;20105;-58
2022/09/21 03:06:18;;;;;;;5.68;2.97;;;;;;;11.76;90.56;102513.03;5070684;28;20043;-58
2022/09/21 03:08:45;;;;;;;7.90;3.45;;;;;;;11.79;89.84;102515.31;5070743;28;20040;-59
2022/09/21 03:11:19;;;;;;;8.60;3.67;;;;;;;11.76;90.38;102511.16;5067733;28;20401;-57
2022/09/21 03:13:47;;;;;;;6.90;3.15;;;;;;;11.73;89.75;102520.63;5073653;28;20049;-57
2022/09/21 03:16:15;;;;;;;8.95;3.55;;;;;;;11.71;90.06;102519.19;5074726;28;20045;-58
2022/09/21 03:18:43;;;;;;;8.55;3.20;;;;;;;11.70;90.56;102518.38;5071027;28;20049;-57
2022/09/21 03:21:11;;;;;;;11.43;3.70;;;;;;;11.72;90.64;102518.16;5056565;28;20041;-54
2022/09/21 03:23:39;;;;;;;8.02;3.75;;;;;;;11.70;89.54;102515.63;5065706;28;20040;-56
2022/09/21 03:26:07;;;;;;;9.88;3.67;;;;;;;11.67;89.67;102512.56;5073955;28;20036;-55
2022/09/21 03:28:35;;;;;;;6.10;3.30;;;;;;;11.62;90.03;102521.44;5074278;28;20048;-54
2022/09/21 03:31:03;;;;;;;7.53;3.53;;;;;;;11.56;90.10;102521.53;5070557;28;20044;-53
2022/09/21 03:33:30;;;;;;;9.25;3.67;;;;;;;11.51;89.95;102528.53;5067671;28;20081;-54
2022/09/21 03:35:58;;;;;;;7.95;3.55;;;;;;;11.51;90.61;102524.97;5071066;28;20048;-55
2022/09/21 03:38:26;;;;;;;8.00;3.78;;;;;;;11.50;90.17;102521.41;5073924;28;20510;-54
2022/09/21 03:40:56;;;;;;;8.38;3.65;;;;;;;11.51;90.33;102524.97;5072811;28;20048;-55
2022/09/21 03:43:24;;;;;;;7.75;3.35;;;;;;;11.50;90.97;102526.88;5072954;28;20036;-54
2022/09/21 03:45:52;;;;;;;8.60;3.33;;;;;;;11.51;90.77;102531.25;5070680;28;20060;-55
2022/09/21 03:48:21;;;;;;;7.07;3.72;;;;;;;11.53;91.13;102533.75;5072743;28;20097;-56
2022/09/21 03:50:48;;;;;;;10.80;3.88;;;;;;;11.51;90.59;102525.78;5069983;28;20059;-55
2022/09/21 03:53:16;;;;;;;11.20;3.80;;;;;;;11.47;90.48;102538.25;5065462;28;20041;-55
2022/09/21 03:55:44;;;;;;;9.80;3.85;;;;;;;11.42;90.84;102532.63;5073623;28;20044;-57
2022/09/21 03:58:12;;;;;;;8.10;3.60;;;;;;;11.42;90.80;102538.09;5072368;28;20048;-55
2022/09/21 04:00:39;;;;;;;9.65;4.30;;;;;;;11.43;91.59;102533.50;5068759;28;20041;-56
2022/09/21 04:03:07;;;;;;;6.60;3.42;;;;;;;11.41;91.32;102536.44;5070802;28;20101;-53
2022/09/21 04:05:35;;;;;;;8.02;4.00;;;;;;;11.43;91.49;102534.31;5067429;28;20093;-55
2022/09/21 04:08:03;;;;;;;8.98;3.67;;;;;;;11.46;91.75;102533.84;5072117;28;20048;-54
2022/09/21 04:10:32;;;;;;;7.82;3.58;;;;;;;11.45;90.19;102534.09;5063049;28;20037;-55
2022/09/21 04:13:00;;;;;;;7.97;3.47;;;;;;;11.44;89.83;102532.41;5068583;28;20056;-52
2022/09/21 04:15:29;;;;;;;9.82;3.72;;;;;;;11.39;90.23;102533.09;5045620;28;20044;-53
2022/09/21 04:17:58;;;;;;;8.60;3.88;;;;;;;11.36;90.34;102528.13;5072108;28;20097;-54
2022/09/21 04:20:25;;;;;;;7.97;3.67;;;;;;;11.39;90.26;102532.28;5071603;28;20036;-53
2022/09/21 04:22:53;;;;;;;8.75;3.90;;;;;;;11.36;90.04;102530.84;5071777;28;20094;-54
2022/09/21 04:25:21;;;;;;;11.68;4.00;;;;;;;11.36;90.25;102527.28;5072624;28;20040;-56
2022/09/21 04:27:49;;;;;;;9.05;3.60;;;;;;;11.32;89.92;102526.91;5069095;28;20081;-56
2022/09/21 04:30:17;;;;;;;8.88;3.88;;;;;;;11.28;90.21;102531.16;5068610;28;20033;-55
2022/09/21 04:32:45;;;;;;;10.57;4.07;;;;;;;11.24;89.57;102524.50;5073182;28;20044;-52
2022/09/21 04:35:13;;;;;;;13.00;4.63;;;;;;;11.20;90.57;102531.47;5071942;28;20125;-53
2022/09/21 04:37:40;;;;;;;10.10;5.50;;;;;;;11.20;90.66;102542.41;5052456;28;20044;-53
2022/09/21 04:40:08;;;;;;;12.48;6.10;;;;;;;11.19;91.11;102538.84;5069915;28;20041;-53
2022/09/21 04:42:36;;;;;;;10.95;5.25;;;;;;;11.19;90.78;102540.75;5072106;28;20081;-54
2022/09/21 04:45:04;;;;;;;12.00;4.85;;;;;;;11.17;90.33;102540.13;5070735;28;20109;-57
2022/09/21 04:47:32;;;;;;;10.23;4.20;;;;;;;11.14;90.57;102541.44;5070286;28;20109;-51
2022/09/21 04:50:00;;;;;;;11.88;5.20;;;;;;;11.16;91.33;102546.63;5067064;28;20139;-51
2022/09/21 04:52:27;;;;;;;11.63;4.95;;;;;;;11.08;92.16;102553.25;5055679;28;20045;-55
2022/09/21 04:54:55;;;;;;;13.05;5.15;;;;;;;10.98;92.49;102547.50;5055262;28;20114;-51
2022/09/21 04:57:23;;;;;;;11.65;5.30;;;;;;;10.91;92.31;102541.28;5062965;28;20045;-53
2022/09/21 04:59:51;;;;;;;9.88;5.07;;;;;;;10.89;92.41;102544.25;5068895;28;20040;-53
2022/09/21 05:02:19;;;;;;;12.80;5.45;;;;;;;10.90;91.83;102548.66;5070728;28;20117;-55
2022/09/21 05:04:46;;;;;;;15.30;5.85;;;;;;;10.95;92.21;102548.78;5072811;28;20036;-54
2022/09/21 05:07:17;;;;;;;9.68;4.80;;;;;;;10.98;92.03;102551.06;5061898;28;20051;-55
2022/09/21 05:10:03;;;;;;;11.43;4.88;;;;;;;10.99;91.27;102549.16;5067362;28;20047;-51
2022/09/21 05:12:32;;;;;;;12.27;5.18;;;;;;;11.00;90.74;102559.84;5060007;28;20098;-56
2022/09/21 05:15:00;;;;;;;8.65;4.63;;;;;;;10.99;90.78;102562.78;5071411;28;20127;-55
2022/09/21 05:17:28;;;;;;;10.40;4.78;;;;;;;10.99;90.03;102562.78;5063107;28;20039;-56
2022/09/21 05:19:56;;;;;;;12.15;4.88;;;;;;;10.96;91.28;102561.34;5061675;28;20049;-54
2022/09/21 05:22:23;;;;;;;11.38;4.90;;;;;;;10.94;91.01;102563.47;5071483;28;20045;-55
2022/09/21 05:24:51;;;;;;;10.60;4.80;;;;;;;10.92;90.78;102565.63;5071069;28;20047;-54
2022/09/21 05:27:19;;;;;;;8.35;4.43;;;;;;;10.89;90.11;102566.06;5070133;28;20097;-54
2022/09/21 05:29:47;;;;;;;9.15;4.50;;;;;;;10.85;90.62;102564.88;5068832;28;20055;-55
2022/09/21 05:32:26;;;;;;;9.65;4.70;;;;;;;10.86;90.96;102571.97;5074824;28;20405;-56
2022/09/21 05:35:16;;;;;;;11.45;5.40;;;;;;;10.86;90.90;102571.97;5074947;28;20070;-52
2022/09/21 05:37:46;;;;;;;10.52;5.50;;;;;;;10.87;91.11;102579.94;5073615;28;20048;-53
2022/09/21 05:40:14;;;;;;;11.55;5.00;;;;;;;10.89;91.47;102574.25;5073700;28;20417;-53
2022/09/21 05:42:42;;;;;;;10.48;4.78;;;;;;;10.90;90.34;102578.66;5073857;28;20044;-54
2022/09/21 05:45:14;;;;;;;9.57;4.78;;;;;;;10.88;91.26;102580.75;5076016;28;20051;-55
2022/09/21 05:47:54;;;;;;;11.65;4.50;;;;;;;10.89;92.05;102582.41;5073812;28;20483;-57
2022/09/21 05:50:22;;;;;;;9.57;4.40;;;;;;;10.90;92.07;102584.09;5073922;28;20117;-57
2022/09/21 05:53:14;;;;;;;10.70;4.50;;;;;;;10.98;92.07;102585.69;5063327;28;20048;-56
2022/09/21 05:55:48;;;;;;;10.23;4.80;;;;;;;11.01;90.97;102577.88;5079322;28;20062;-54
2022/09/21 05:58:48;;;;;;;10.23;5.00;;;;;;;11.03;91.47;102581.22;5064554;28;20037;-55
2022/09/21 06:01:36;;;;;;;8.45;4.60;;;;;;;11.02;91.77;102595.09;5070727;28;20093;-52
2022/09/21 06:04:04;;;;;;;14.77;5.03;;;;;;;11.00;92.05;102592.56;5046072;28;20045;-49
2022/09/21 06:06:32;;;;;;;10.85;5.15;;;;;;;11.01;91.86;102596.13;5066120;28;20517;-51
2022/09/21 06:08:59;;;;;;;11.10;5.07;;;;;;;10.95;91.95;102594.34;5075587;28;20040;-51
2022/09/21 06:11:27;;;;;;;12.70;5.25;;;;;;;10.94;92.25;102593.47;5074400;28;20093;-48
2022/09/21 06:13:55;;;;;;;11.90;5.63;;;;;;;10.95;92.73;102605.25;5060783;28;20070;-52
2022/09/21 06:16:23;;;;;;;8.40;4.72;;;;;;;10.94;92.79;102609.84;5073384;28;20081;-50
2022/09/21 06:18:51;;;;;;;11.90;5.32;;;;;;;10.94;93.55;102598.94;4361084;28;10000650;-53
2022/09/21 06:21:19;;;;;;;11.43;5.15;;;;;;;10.98;93.63;102608.34;5074747;28;20040;-50
2022/09/21 06:23:46;;;;;;;10.43;4.65;;;;;;;11.01;93.58;102605.16;5073123;28;20093;-49
2022/09/21 06:26:14;;;;;;;11.90;5.40;;;;;;;11.03;93.68;102603.03;5056318;28;20440;-51
2022/09/21 06:28:42;;;;;;;14.32;5.47;;;;;;;11.08;93.71;102605.91;5060955;28;20041;-51
2022/09/21 06:31:09;;;;;;;8.43;5.03;;;;;;;11.11;93.40;102601.06;5066503;28;20577;-48
2022/09/21 06:33:37;;;;;;;9.63;4.57;;;;;;;11.11;94.12;102601.88;5054632;28;20071;-49
2022/09/21 06:36:05;;;;;;;8.48;4.38;;;;;;;11.12;94.48;102600.00;5065407;28;20041;-49
2022/09/21 06:38:34;;;;;;;12.38;4.80;;;;;;;11.15;95.45;102607.72;5067512;28;20037;-50
2022/09/21 06:41:03;;;;;;;10.95;4.93;;;;;;;11.18;95.04;102601.81;5050957;28;20044;-48
2022/09/21 06:43:31;;;;;;;8.45;4.65;;;;;;;11.21;95.33;102595.91;5051341;28;20029;-50
2022/09/21 06:46:00;;;;;;;9.10;4.80;;;;;;;11.24;95.96;102601.75;5066389;28;20040;-51
2022/09/21 06:48:29;;;;;;;9.57;4.50;;;;;;;11.28;95.83;102604.81;5061926;28;20078;-49
2022/09/21 06:51:04;;;;;;;13.57;5.13;;;;;;;11.29;95.74;102604.63;5068101;28;20517;-48
2022/09/21 06:53:33;;;;;;;14.07;6.05;;;;;;;11.31;96.05;102607.13;5055674;28;20033;-51
2022/09/21 06:56:05;;;;;;;10.25;5.57;;;;;;;11.31;96.71;102609.84;5064258;28;20399;-49
2022/09/21 06:58:34;;;;;;;10.75;5.28;;;;;;;11.35;97.19;102597.41;5053198;28;20494;-48
2022/09/21 07:01:06;;;;;;;11.18;4.28;;;;;;;11.35;97.40;102602.84;5061201;28;20059;-49
2022/09/21 07:03:34;;;;;;;9.70;5.10;;;;;;;11.39;97.65;102604.06;5068846;28;20048;-52
2022/09/21 07:06:01;;;;;;;15.75;5.35;;;;;;;11.41;97.12;102601.94;5068092;28;20044;-53
2022/09/21 07:08:29;;;;;;;10.98;4.72;;;;;;;11.42;97.01;102605.50;5070292;28;20048;-48
2022/09/21 07:11:17;;;;;;;15.93;5.13;;;;;;;11.46;97.60;102613.00;5062790;28;20040;-48
2022/09/21 07:13:44;;;;;;;14.50;5.38;;;;;;;11.49;96.58;102609.81;5071210;28;20567;-50
2022/09/21 07:16:13;;;;;;;17.95;4.95;;;;;;;11.51;97.14;102607.69;5069703;28;20453;-52
2022/09/21 07:18:41;;;;;;;15.00;5.38;;;;;;;11.55;97.13;102612.72;5058815;28;20041;-50
2022/09/21 07:21:11;;;;;;;16.77;6.05;;;;;;;11.56;96.96;102614.34;5034180;28;20075;-51
2022/09/21 07:23:39;;;;;;;17.58;5.63;;;;;;;11.61;96.95;102614.50;5057633;28;20044;-49
2022/09/21 07:26:09;;;;;;;13.25;4.95;;;;;;;11.64;96.60;102612.16;5066737;28;20468;-52
2022/09/21 07:28:37;;;;;;;11.98;5.20;;;;;;;11.65;96.08;102612.97;5065029;28;20044;-50
2022/09/21 07:31:12;;;;;;;12.63;4.82;;;;;;;11.66;95.29;102611.91;5062772;28;20045;-53
2022/09/21 07:33:41;;;;;;;12.40;4.93;;;;;;;11.69;95.07;102606.00;5063719;28;20402;-49
2022/09/21 07:36:09;;;;;;;10.40;4.65;;;;;;;11.71;95.71;102595.66;5069451;28;20748;-52
2022/09/21 07:38:38;;;;;;;14.90;5.43;;;;;;;11.72;95.36;102602.81;5068430;28;20387;-51
2022/09/21 07:41:07;;;;;;;11.32;4.10;;;;;;;11.71;94.51;102595.66;5066183;28;20056;-50
2022/09/21 07:43:38;;;;;;;14.43;5.70;;;;;;;11.73;95.67;102599.81;5062979;28;20095;-52
2022/09/21 07:46:07;;;;;;;11.27;4.72;;;;;;;11.77;95.73;102600.19;5068747;28;20044;-54
2022/09/21 07:48:35;;;;;;;10.52;4.15;;;;;;;11.79;96.00;102598.06;5068470;28;20052;-50
2022/09/21 07:51:14;;;;;;;11.50;4.30;;;;;;;11.82;95.57;102602.22;5067950;28;20047;-49
2022/09/21 07:53:45;;;;;;;15.35;4.30;;;;;;;11.82;95.39;102600.34;5059707;28;20098;-50
2022/09/21 07:56:15;;;;;;;11.65;4.30;;;;;;;11.81;95.05;102601.41;5055770;28;20065;-53
2022/09/21 08:01:29;;;;;;;;;;;;;;;11.86;95.71;102597.97;5062735;28;20044;-50
2022/09/21 08:03:58;;;;;;;9.98;3.60;;;;;;;11.89;95.06;102601.09;5060948;28;20293;-52
2022/09/21 08:06:29;;;;;;;11.55;3.70;;;;;;;11.91;94.88;102601.69;5058122;28;20611;-48
2022/09/21 08:08:56;;;;;;;11.88;3.88;;;;;;;11.92;94.14;102600.63;5057271;28;20120;-49
2022/09/21 08:11:27;;;;;;;8.13;3.10;;;;;;;11.94;94.75;102600.41;5065966;28;20042;-50
2022/09/21 08:13:59;;;;;;;9.88;3.53;;;;;;;11.96;94.35;102594.72;5065622;28;20128;-48
2022/09/21 08:16:28;;;;;;;11.13;3.65;;;;;;;11.99;94.14;102592.34;5062345;28;20097;-51
2022/09/21 08:18:56;;;;;;;8.30;3.05;;;;;;;12.03;94.23;102588.06;5059924;28;20040;-49
2022/09/21 08:21:24;;;;;;;11.00;4.10;;;;;;;12.07;94.30;102596.63;5062496;28;20102;-49
2022/09/21 08:23:52;;;;;;;11.50;3.80;;;;;;;12.10;93.33;102599.72;5068910;28;20487;-48
2022/09/21 08:26:20;;;;;;;9.57;3.47;;;;;;;12.12;93.06;102594.00;5079823;28;20052;-48
2022/09/21 08:28:51;;;;;;;10.75;3.95;;;;;;;12.14;93.15;102600.91;5034817;28;20510;-51
2022/09/21 08:31:21;;;;;;;17.52;4.38;;;;;;;12.18;92.13;102605.94;5061773;28;20032;-51
2022/09/21 08:33:49;;;;;;;8.07;3.13;;;;;;;12.22;91.19;102599.75;5058639;28;20494;-52
2022/09/21 08:36:18;;;;;;;6.63;2.80;;;;;;;12.27;90.87;102605.34;5067795;28;20057;-50
2022/09/21 08:38:46;;;;;;;6.55;2.80;;;;;;;12.31;90.15;102597.50;5069787;28;20036;-52
2022/09/21 08:41:41;;;;;;;9.68;2.97;;;;;;;12.32;88.36;102601.91;5060890;28;20048;-51
2022/09/21 08:44:25;;;;;;;8.93;3.17;;;;;;;12.35;88.71;102596.78;5058180;28;20041;-53
2022/09/21 08:47:17;;;;;;;10.32;2.90;;;;;;;12.40;88.47;102604.28;5064983;28;20102;-50
2022/09/21 08:49:57;;;;;;;9.20;3.00;;;;;;;12.44;87.51;102605.47;5063871;28;20052;-49
2022/09/21 08:52:26;;;;;;;6.75;2.95;;;;;;;12.50;87.37;102609.16;5055425;28;20037;-50
2022/09/21 08:55:00;;;;;;;7.18;2.60;;;;;;;12.52;87.14;102604.28;5071443;28;20051;-51
2022/09/21 08:57:31;;;;;;;7.10;2.53;;;;;;;12.54;86.20;102610.34;5062484;28;20032;-49
2022/09/21 09:00:00;;;;;;;5.45;2.30;;;;;;;12.55;85.53;102609.28;5059433;28;20102;-49
2022/09/21 09:02:53;;;;;;;13.15;3.45;;;;;;;12.57;85.92;102610.69;5063682;28;20045;-50
2022/09/21 09:05:40;;;;;;;10.98;3.03;;;;;;;12.61;86.00;102615.72;5060909;28;20101;-49
2022/09/21 09:08:43;;;;;;;7.78;2.80;;;;;;;12.62;84.73;102617.38;5074594;28;20040;-48
2022/09/21 09:11:33;;;;;;;7.35;2.60;;;;;;;12.66;84.87;102624.88;5065997;28;20447;-51
2022/09/21 09:14:22;;;;;;;8.07;2.55;;;;;;;12.75;81.35;102623.44;5071132;28;20062;-49
2022/09/21 09:17:24;;;;;;;10.45;2.80;;;;;;;12.79;81.54;102621.91;5061056;28;20049;-49
2022/09/21 09:20:05;;;;;;;8.57;2.50;;;;;;;12.84;82.08;102620.34;5062867;28;20036;-51
2022/09/21 09:23:10;;;;;;;8.65;2.88;;;;;;;12.91;81.46;102621.03;5058513;28;20040;-52
2022/09/21 09:25:42;;;;;;;7.27;2.50;;;;;;;12.97;80.32;102620.09;5072660;28;20036;-51
2022/09/21 09:28:35;;;;;;;11.32;2.63;;;;;;;12.98;81.42;102617.09;5069160;28;20037;-48
2022/09/21 09:31:24;;;;;;;4.85;2.20;;;;;;;12.98;80.77;102617.09;5066785;28;20041;-52
2022/09/21 09:33:59;;;;;;;9.55;2.92;;;;;;;13.02;80.49;102616.63;5084402;28;20063;-49
2022/09/21 09:36:32;;;;;;;8.70;2.70;;;;;;;13.04;77.93;102619.97;5066088;28;20036;-53
2022/09/21 09:39:20;;;;;;;8.25;2.50;;;;;;;13.07;78.89;102616.75;5069412;28;20055;-50
2022/09/21 09:42:22;;;;;;;9.73;2.72;;;;;;;13.11;79.23;102620.69;5061635;28;20055;-48
2022/09/21 09:45:06;;;;;;;12.88;3.00;;;;;;;13.11;77.64;102621.50;5065548;28;20036;-49
2022/09/21 09:47:53;;;;;;;9.48;2.70;;;;;;;13.20;77.64;102624.69;5072399;28;20043;-50
2022/09/21 09:50:27;;;;;;;8.23;2.90;;;;;;;13.31;76.83;102621.13;5049120;28;20045;-50
2022/09/21 09:53:06;;;;;;;8.43;2.47;;;;;;;13.35;75.46;102627.78;5060754;28;20049;-52
2022/09/21 09:55:55;;;;;;;8.82;2.42;;;;;;;13.38;72.69;102624.56;5076281;28;20033;-49
2022/09/21 09:58:46;;;;;;;6.32;2.15;;;;;;;13.40;71.44;102618.84;5061308;28;20041;-47
2022/09/21 10:01:37;;;;;;;8.82;2.65;;;;;;;13.44;72.38;102617.25;5068683;28;20127;-53
2022/09/21 10:04:08;;;;;;;10.80;3.15;;;;;;;13.47;73.77;102614.06;5075108;28;20056;-49
2022/09/21 10:06:36;;;;;;;9.38;2.72;;;;;;;13.55;72.16;102612.84;5060927;28;20048;-53
2022/09/21 10:09:23;;;;;;;7.28;2.50;;;;;;;13.58;72.25;102615.06;5072066;28;20040;-49
2022/09/21 10:11:53;;;;;;;6.55;2.13;;;;;;;13.62;69.79;102617.09;5067828;28;20045;-49
2022/09/21 10:14:23;;;;;;;6.97;2.28;;;;;;;13.72;69.22;102626.59;5074682;28;20040;-48
2022/09/21 10:16:52;;;;;;;9.80;2.58;;;;;;;13.83;67.05;102625.72;5066629;28;20055;-49
2022/09/21 10:19:24;;;;;;;8.50;2.58;;;;;;;13.92;66.94;102615.97;5071627;28;20047;-52
2022/09/21 10:21:56;;;;;;;8.20;2.58;;;;;;;13.98;67.94;102616.94;5064785;28;20086;-49
2022/09/21 10:24:35;;;;;;;7.90;2.67;;;;;;;14.02;68.11;102607.09;5066287;28;20033;-48
2022/09/21 10:27:05;;;;;;;4.28;2.00;;;;;;;14.07;65.30;102608.06;5062355;28;20567;-47
2022/09/21 10:29:45;;;;;;;5.70;1.92;;;;;;;14.07;62.51;102605.31;5055180;28;20040;-49
2022/09/21 10:32:12;;;;;;;10.32;2.25;;;;;;;14.06;61.93;102605.53;5071396;28;20043;-51
2022/09/21 10:34:59;;;;;;;6.30;2.10;;;;;;;14.07;63.35;102594.34;5070005;28;20119;-48
2022/09/21 10:37:30;;;;;;;9.67;2.70;;;;;;;14.07;63.07;102590.78;5068302;28;20041;-52
2022/09/21 10:39:57;;;;;;;5.95;1.90;;;;;;;14.11;61.19;102597.41;5062802;28;20036;-51
2022/09/21 10:42:25;;;;;;;5.75;1.73;;;;;;;14.16;61.92;102596.66;5067316;28;20048;-51
2022/09/21 10:45:34;;;;;;;8.73;3.00;;;;;;;14.13;63.13;102594.44;5091433;28;20525;-49
2022/09/21 10:48:16;;;;;;;7.53;2.15;;;;;;;14.16;62.32;102591.19;5060276;28;20107;-51
2022/09/21 10:50:45;;;;;;;6.68;2.22;;;;;;;14.20;62.17;102589.63;5066234;28;20029;-48
2022/09/21 10:53:22;;;;;;;8.13;2.10;;;;;;;14.22;62.10;102590.19;5069523;28;20037;-51
2022/09/21 10:56:15;;;;;;;7.28;2.65;;;;;;;14.30;62.56;102587.03;5064447;28;20036;-50
2022/09/21 10:59:22;;;;;;;5.85;2.20;;;;;;;14.42;63.40;102587.75;5061231;28;20040;-50
2022/09/21 11:01:52;;;;;;;7.80;2.22;;;;;;;14.44;63.86;102576.56;5053409;28;20051;-50
2022/09/21 11:04:28;;;;;;;6.05;2.10;;;;;;;14.51;64.67;102581.88;5066570;28;20051;-48
2022/09/21 11:07:14;;;;;;;10.15;2.33;;;;;;;14.49;64.41;102574.72;5062398;28;20036;-48
2022/09/21 11:10:06;;;;;;;6.03;1.98;;;;;;;14.51;63.99;102582.69;5070965;28;20465;-48
2022/09/21 11:12:48;;;;;;;11.73;2.33;;;;;;;14.53;61.24;102574.19;5060308;28;20052;-50
2022/09/21 11:15:34;;;;;;;6.47;1.90;;;;;;;14.63;61.47;102577.97;5031780;28;20037;-53
2022/09/21 11:18:17;;;;;;;7.80;2.08;;;;;;;14.71;59.89;102582.19;5072824;28;20044;-52
2022/09/21 11:20:55;;;;;;;6.90;1.75;;;;;;;14.73;57.72;102577.28;5064077;28;20457;-54
2022/09/21 11:23:35;;;;;;;7.18;1.63;;;;;;;14.69;58.19;102576.13;5073695;28;20043;-52
2022/09/21 11:26:28;;;;;;;5.38;2.33;;;;;;;14.68;59.45;102577.22;5067300;28;20113;-51
2022/09/21 11:29:25;;;;;;;6.60;2.17;;;;;;;14.62;59.38;102581.81;5067686;28;20048;-50
2022/09/21 11:32:23;;;;;;;9.40;1.90;;;;;;;14.61;58.60;102584.78;5064779;28;20128;-51
2022/09/21 11:35:36;;;;;;;6.63;2.45;;;;;;;14.61;59.17;102582.88;5072985;28;20131;-49
2022/09/21 11:38:35;;;;;;;6.13;1.98;;;;;;;14.56;58.91;102576.50;5074114;28;21261;-49
2022/09/21 11:41:23;;;;;;;4.97;1.67;;;;;;;14.49;58.52;102574.72;5067850;28;20043;-52
2022/09/21 11:44:22;;;;;;;8.32;2.22;;;;;;;14.48;58.07;102575.81;5066499;28;20044;-50
2022/09/21 11:47:27;;;;;;;5.50;1.63;;;;;;;14.49;58.28;102571.16;5070154;28;20089;-49
2022/09/21 11:50:16;;;;;;;6.55;1.73;;;;;;;14.52;57.90;102569.81;5061184;28;20494;-49
2022/09/21 11:53:15;;;;;;;4.70;1.48;;;;;;;14.58;55.60;102560.63;5061450;28;20142;-49
2022/09/21 11:56:07;;;;;;;7.47;2.03;;;;;;;14.65;55.66;102564.84;5072849;28;20518;-49
2022/09/21 11:58:42;;;;;;;7.47;1.70;;;;;;;14.71;53.37;102562.97;5072794;28;20063;-48
2022/09/21 12:01:31;;;;;;;5.72;1.70;;;;;;;14.73;53.11;102555.34;5072872;28;20047;-51